createdAt,value
2019-03-22T00:02:16.567Z,85.48
2019-03-22T00:04:45.084Z,85.87
2019-03-22T00:07:13.536Z,86.18
2019-03-22T00:09:41.989Z,86.32
2019-03-22T00:12:29.725Z,86.00
2019-03-22T00:14:58.178Z,86.18
2019-03-22T00:20:54.101Z,86.44
2019-03-22T00:23:22.550Z,86.21
2019-03-22T00:25:51.007Z,86.79
2019-03-22T00:28:19.492Z,87.19
2019-03-22T00:31:07.262Z,86.93
2019-03-22T00:36:29.360Z,87.25
2019-03-22T00:38:57.818Z,86.93
2019-03-22T00:41:26.340Z,87.48
2019-03-22T00:43:54.756Z,87.95
2019-03-22T00:46:23.205Z,87.62
2019-03-22T00:48:51.695Z,87.56
2019-03-22T00:51:20.165Z,87.53
2019-03-22T00:53:48.649Z,87.67
2019-03-22T00:58:51.622Z,87.88
2019-03-22T01:01:39.434Z,88.19
2019-03-22T01:04:07.889Z,87.29
2019-03-22T01:06:55.609Z,87.88
2019-03-22T01:09:24.092Z,88.07
2019-03-22T01:11:52.529Z,89.19
2019-03-22T01:16:55.454Z,88.56
2019-03-22T01:19:43.341Z,89.19
2019-03-22T01:22:11.790Z,88.88
2019-03-22T01:24:59.480Z,88.99
2019-03-22T01:27:47.259Z,88.50
2019-03-22T01:30:55.734Z,88.37
2019-03-22T01:33:43.501Z,86.94
2019-03-22T01:38:45.772Z,88.67
2019-03-22T01:41:33.667Z,89.18
2019-03-22T01:44:21.303Z,89.10
2019-03-22T01:46:49.790Z,89.52
2019-03-22T01:49:18.236Z,88.94
2019-03-22T01:52:06.002Z,88.96
2019-03-22T01:54:34.454Z,89.10
2019-03-22T01:57:02.911Z,88.99
2019-03-22T01:59:50.668Z,89.73
2019-03-22T02:02:19.112Z,90.16
2019-03-22T02:04:47.565Z,90.28
2019-03-22T02:07:16.047Z,90.95
2019-03-22T02:09:44.493Z,89.87
2019-03-22T02:12:12.940Z,90.18
2019-03-22T02:17:15.244Z,90.12
2019-03-22T02:20:02.973Z,90.20
2019-03-22T02:22:31.421Z,90.75
2019-03-22T02:25:19.247Z,90.94
2019-03-22T02:28:27.702Z,90.44
2019-03-22T02:33:30.523Z,90.51
2019-03-22T02:35:59.017Z,89.84
2019-03-22T02:38:27.465Z,90.70
2019-03-22T02:40:55.921Z,90.88
2019-03-22T02:45:58.129Z,90.96
2019-03-22T02:48:26.551Z,91.35
2019-03-22T02:53:29.384Z,92.13
2019-03-22T02:55:57.966Z,92.03
2019-03-22T03:01:41.429Z,91.01
2019-03-22T03:04:29.306Z,91.01
2019-03-22T03:07:16.960Z,91.42
2019-03-22T03:10:04.890Z,91.91
2019-03-22T03:12:33.338Z,92.00
2019-03-22T03:15:01.787Z,91.40
2019-03-22T03:17:30.269Z,91.21
2019-03-22T03:19:58.741Z,91.20
2019-03-22T03:22:27.183Z,90.83
2019-03-22T03:24:55.671Z,91.09
2019-03-22T03:27:24.114Z,91.38
2019-03-22T03:29:52.567Z,91.84
2019-03-22T03:32:21.085Z,92.73
2019-03-22T03:34:49.552Z,92.48
2019-03-22T03:37:18.020Z,92.54
2019-03-22T03:42:20.409Z,92.19
2019-03-22T03:45:08.100Z,92.15
2019-03-22T03:47:36.548Z,93.16
2019-03-22T03:50:44.954Z,92.84
2019-03-22T03:53:13.473Z,92.29
2019-03-22T03:56:01.300Z,92.63
2019-03-22T03:58:29.753Z,92.68
2019-03-22T04:00:58.212Z,91.78
2019-03-22T04:03:26.730Z,92.48
2019-03-22T04:05:55.182Z,92.81
2019-03-22T04:08:23.630Z,92.57
2019-03-22T04:13:45.278Z,93.17
2019-03-22T04:21:42.773Z,93.52
2019-03-22T04:24:11.286Z,93.81
2019-03-22T04:26:39.718Z,93.21
2019-03-22T04:29:08.618Z,92.46
2019-03-22T04:31:38.403Z,92.49
2019-03-22T04:34:06.866Z,93.23
2019-03-22T04:36:35.308Z,93.79
2019-03-22T04:44:32.094Z,92.58
2019-03-22T04:47:40.504Z,92.51
2019-03-22T04:50:48.867Z,93.52
2019-03-22T04:53:57.293Z,93.87
2019-03-22T04:57:05.672Z,93.82
2019-03-22T05:00:14.081Z,94.73
2019-03-22T05:03:22.446Z,93.07
2019-03-22T05:06:30.916Z,93.29
2019-03-22T05:09:39.282Z,93.81
2019-03-22T05:12:47.690Z,93.54
2019-03-22T05:15:56.078Z,92.94
2019-03-22T05:19:04.555Z,92.37
2019-03-22T05:22:12.933Z,91.86
2019-03-22T05:25:21.420Z,91.77
2019-03-22T05:28:29.791Z,92.58
2019-03-22T05:31:36.944Z,93.56
2019-03-22T05:34:05.397Z,94.11
2019-03-22T05:36:33.849Z,94.20
2019-03-22T05:39:02.333Z,93.69
2019-03-22T05:41:30.786Z,93.35
2019-03-22T05:44:18.552Z,92.80
2019-03-22T05:46:49.003Z,92.33
2019-03-22T05:49:17.182Z,92.78
2019-03-22T05:51:45.670Z,92.59
2019-03-22T05:54:14.117Z,93.60
2019-03-22T05:56:42.570Z,93.94
2019-03-22T05:59:11.067Z,93.31
2019-03-22T06:01:58.773Z,93.14
2019-03-22T06:07:00.824Z,92.70
2019-03-22T06:09:48.455Z,93.06
2019-03-22T06:12:16.954Z,93.35
2019-03-22T06:14:45.409Z,93.75
2019-03-22T06:19:47.464Z,93.39
2019-03-22T06:22:15.927Z,94.03
2019-03-22T06:24:44.416Z,93.84
2019-03-22T06:27:12.943Z,93.56
2019-03-22T06:29:41.397Z,92.71
2019-03-22T06:34:43.930Z,92.79
2019-03-22T06:37:12.450Z,92.48
2019-03-22T06:39:40.936Z,92.17
2019-03-22T06:42:28.582Z,92.34
2019-03-22T06:47:49.835Z,91.44
2019-03-22T06:50:18.321Z,91.02
2019-03-22T06:52:46.794Z,90.70
2019-03-22T06:55:15.267Z,90.40
2019-03-22T06:57:43.759Z,88.77
2019-03-22T07:00:52.169Z,87.78
2019-03-22T07:03:20.725Z,87.32
2019-03-22T07:06:08.524Z,86.96
2019-03-22T07:08:37.102Z,86.65
2019-03-22T07:11:24.875Z,86.10
2019-03-22T07:13:53.437Z,85.52
2019-03-22T07:16:21.885Z,84.70
2019-03-22T07:18:50.336Z,85.65
2019-03-22T07:21:18.871Z,85.26
2019-03-22T07:23:47.333Z,85.03
2019-03-22T07:26:15.792Z,84.79
2019-03-22T07:28:44.354Z,83.99
2019-03-22T07:31:12.815Z,84.34
2019-03-22T07:33:41.277Z,84.15
2019-03-22T07:36:09.782Z,83.84
2019-03-22T07:38:38.237Z,83.41
2019-03-22T07:41:06.753Z,83.54
2019-03-22T07:43:54.507Z,83.74
2019-03-22T07:46:42.148Z,82.94
2019-03-22T07:49:10.629Z,83.04
2019-03-22T07:51:58.397Z,84.22
2019-03-22T07:57:00.753Z,83.41
2019-03-22T07:59:29.202Z,82.29
2019-03-22T08:04:31.588Z,81.74
2019-03-22T08:07:01.336Z,81.31
2019-03-22T08:09:51.273Z,81.11
2019-03-22T08:14:53.690Z,78.56
2019-03-22T08:17:41.463Z,78.48
2019-03-22T08:20:49.799Z,77.08
2019-03-22T08:23:58.263Z,77.30
2019-03-22T08:26:26.719Z,77.65
2019-03-22T08:28:55.181Z,77.05
2019-03-22T08:31:42.901Z,77.17
2019-03-22T08:34:11.376Z,76.88
2019-03-22T08:36:39.806Z,76.43
2019-03-22T08:39:48.288Z,76.35
2019-03-22T08:42:16.815Z,75.54
2019-03-22T08:44:45.316Z,76.11
2019-03-22T08:47:34.573Z,75.29
2019-03-22T08:50:22.458Z,74.47
2019-03-22T08:55:25.391Z,73.87
2019-03-22T08:57:53.854Z,73.76
2019-03-22T09:00:22.405Z,73.93
2019-03-22T09:02:50.878Z,74.12
2019-03-22T09:05:19.374Z,73.87
2019-03-22T09:07:47.865Z,72.85
2019-03-22T09:10:56.256Z,72.29
2019-03-22T09:13:24.730Z,72.33
2019-03-22T09:15:53.185Z,72.55
2019-03-22T09:18:21.658Z,71.94
2019-03-22T09:20:50.226Z,71.66
2019-03-22T09:23:18.686Z,71.07
2019-03-22T09:26:06.362Z,69.98
2019-03-22T09:28:54.149Z,70.42
2019-03-22T09:31:22.634Z,70.02
2019-03-22T09:33:51.149Z,69.96
2019-03-22T09:36:19.719Z,68.98
2019-03-22T09:41:41.961Z,67.57
2019-03-22T09:44:42.357Z,67.79
2019-03-22T09:46:59.923Z,67.32
2019-03-22T09:49:28.385Z,66.86
2019-03-22T09:54:31.336Z,66.62
2019-03-22T09:56:59.852Z,66.93
2019-03-22T09:59:28.369Z,66.57
2019-03-22T10:01:56.849Z,65.46
2019-03-22T10:04:25.312Z,64.75
2019-03-22T10:06:53.892Z,64.26
2019-03-22T10:09:22.311Z,63.61
2019-03-22T10:11:50.837Z,63.83
2019-03-22T10:14:21.370Z,63.89
2019-03-22T10:16:49.494Z,63.79
2019-03-22T10:19:18.002Z,63.92
2019-03-22T10:24:20.093Z,62.90
2019-03-22T10:27:07.832Z,63.10
2019-03-22T10:29:55.542Z,61.64
2019-03-22T10:34:57.800Z,60.25
2019-03-22T10:37:26.266Z,57.69
2019-03-22T10:48:16.898Z,55.70
2019-03-22T10:50:45.432Z,54.05
2019-03-22T10:53:13.923Z,51.90
2019-03-22T10:55:42.417Z,48.38
2019-03-22T11:01:00.047Z,48.40
2019-03-22T11:03:28.546Z,46.72
2019-03-22T11:06:25.541Z,45.51
2019-03-22T11:08:46.416Z,44.14
2019-03-22T11:14:21.566Z,41.94
2019-03-22T11:16:50.021Z,42.18
2019-03-22T11:19:37.842Z,43.43
2019-03-22T11:22:25.513Z,42.71
2019-03-22T11:24:53.979Z,41.27
2019-03-22T11:27:22.439Z,40.55
2019-03-22T11:29:50.921Z,41.75
2019-03-22T11:35:53.727Z,39.91
2019-03-22T11:41:16.041Z,39.92
2019-03-22T11:49:13.234Z,40.54
2019-03-22T11:52:01.016Z,39.15
2019-03-22T11:57:22.887Z,39.82
2019-03-22T12:02:25.149Z,39.52
2019-03-22T12:04:53.653Z,39.10
2019-03-22T12:07:22.113Z,38.94
2019-03-22T12:10:10.001Z,40.43
2019-03-22T12:12:38.461Z,40.51
2019-03-22T12:15:46.887Z,39.99
2019-03-22T12:18:15.343Z,39.35
2019-03-22T12:20:43.843Z,38.12
2019-03-22T12:23:12.363Z,39.25
2019-03-22T12:25:40.818Z,39.95
2019-03-22T12:28:09.279Z,39.37
2019-03-22T12:30:57.123Z,39.63
2019-03-22T12:33:25.588Z,39.39
2019-03-22T12:35:54.048Z,39.91
2019-03-22T12:38:41.738Z,39.65
2019-03-22T12:41:10.269Z,38.85
2019-03-22T12:43:38.723Z,38.23
2019-03-22T12:46:07.233Z,39.21
2019-03-22T12:48:35.700Z,39.42
2019-03-22T12:53:57.246Z,37.44
2019-03-22T12:56:25.714Z,38.97
2019-03-22T12:58:54.213Z,39.27
2019-03-22T13:01:22.670Z,39.30
2019-03-22T13:03:51.147Z,37.92
2019-03-22T13:06:38.911Z,38.00
2019-03-22T13:09:47.293Z,38.60
2019-03-22T13:14:49.709Z,38.39
2019-03-22T13:20:51.199Z,38.31
2019-03-22T13:23:21.207Z,37.82
2019-03-22T13:25:49.673Z,39.37
2019-03-22T13:28:18.144Z,37.81
2019-03-22T13:30:46.657Z,38.05
2019-03-22T13:33:15.128Z,36.00
2019-03-22T13:35:50.802Z,36.04
2019-03-22T13:40:52.978Z,36.04
2019-03-22T13:43:40.757Z,36.83
2019-03-22T13:46:28.476Z,35.46
2019-03-22T13:49:16.162Z,35.38
2019-03-22T13:51:44.641Z,35.78
2019-03-22T13:54:32.263Z,35.52
2019-03-22T13:57:19.913Z,36.07
2019-03-22T14:02:23.059Z,35.78
2019-03-22T14:04:52.944Z,35.56
2019-03-22T14:07:21.404Z,36.31
2019-03-22T14:09:51.954Z,36.27
2019-03-22T14:12:20.163Z,36.19
2019-03-22T14:14:48.619Z,35.91
2019-03-22T14:17:36.363Z,36.28
2019-03-22T14:20:44.738Z,36.04
2019-03-22T14:26:06.843Z,36.22
2019-03-22T14:28:35.337Z,35.05
2019-03-22T14:31:03.806Z,35.02
2019-03-22T14:33:51.552Z,35.98
2019-03-22T14:36:39.259Z,35.95
2019-03-22T14:39:47.687Z,35.72
2019-03-22T14:42:16.139Z,35.73
2019-03-22T14:44:44.601Z,35.78
2019-03-22T14:52:21.331Z,35.91
2019-03-22T14:54:49.822Z,36.07
2019-03-22T14:57:47.793Z,35.46
2019-03-22T15:00:47.681Z,35.15
2019-03-22T15:03:35.328Z,35.50
2019-03-22T15:06:03.900Z,36.02
2019-03-22T15:08:32.361Z,35.42
2019-03-22T15:11:00.815Z,35.86
2019-03-22T15:16:44.530Z,35.33
2019-03-22T15:19:32.194Z,35.93
2019-03-22T15:24:55.377Z,39.76
2019-03-22T15:33:11.332Z,39.82
2019-03-22T15:35:59.052Z,39.70
2019-03-22T15:38:46.989Z,40.20
2019-03-22T15:41:36.367Z,41.14
2019-03-22T15:44:44.873Z,41.17
2019-03-22T15:47:32.651Z,41.40
2019-03-22T15:50:01.162Z,41.51
2019-03-22T15:52:29.625Z,40.78
2019-03-22T15:55:17.391Z,40.92
2019-03-22T15:57:45.922Z,41.45
2019-03-22T16:00:54.347Z,42.29
2019-03-22T16:09:05.281Z,42.83
2019-03-22T16:14:26.827Z,42.61
2019-03-22T16:19:29.082Z,43.15
2019-03-22T16:21:57.598Z,43.73
2019-03-22T16:24:45.335Z,42.77
2019-03-22T16:27:13.863Z,42.85
2019-03-22T16:29:54.238Z,43.00
2019-03-22T16:32:22.707Z,43.41
2019-03-22T16:34:51.168Z,44.45
2019-03-22T16:37:39.233Z,45.24
2019-03-22T16:40:47.616Z,45.08
2019-03-22T16:43:35.368Z,45.28
2019-03-22T16:46:23.146Z,45.74
2019-03-22T16:48:51.710Z,46.02
2019-03-22T16:51:20.174Z,46.02
2019-03-22T16:54:07.926Z,46.65
2019-03-22T16:56:36.403Z,46.81
2019-03-22T16:59:24.515Z,47.35
2019-03-22T17:02:12.190Z,47.40
2019-03-22T17:04:40.680Z,47.84
2019-03-22T17:07:09.139Z,47.82
2019-03-22T17:09:37.597Z,48.06
2019-03-22T17:12:25.333Z,48.28
2019-03-22T17:14:53.790Z,48.32
2019-03-22T17:17:22.247Z,48.85
2019-03-22T17:19:50.730Z,49.24
2019-03-22T17:22:19.188Z,48.96
2019-03-22T17:24:47.645Z,50.20
2019-03-22T17:27:35.401Z,50.11
2019-03-22T17:30:43.772Z,50.39
2019-03-22T17:33:12.264Z,50.82
2019-03-22T17:35:59.963Z,51.33
2019-03-22T17:38:28.475Z,51.66
2019-03-22T17:40:56.948Z,51.85
2019-03-22T17:43:25.391Z,51.67
2019-03-22T17:45:53.891Z,51.66
2019-03-22T17:48:22.355Z,51.71
2019-03-22T17:51:10.089Z,53.07
2019-03-22T17:53:38.547Z,53.99
2019-03-22T17:56:07.013Z,52.15
2019-03-22T17:58:35.508Z,52.75
2019-03-22T18:01:23.276Z,53.31
2019-03-22T18:03:51.800Z,52.81
2019-03-22T18:06:39.449Z,52.80
2019-03-22T18:09:27.258Z,52.34
2019-03-22T18:11:55.712Z,54.07
2019-03-22T18:14:24.173Z,55.74
2019-03-22T18:16:52.674Z,55.98
2019-03-22T18:19:21.127Z,57.16
2019-03-22T18:21:49.583Z,56.94
2019-03-22T18:26:51.669Z,59.04
2019-03-22T18:29:20.127Z,59.89
2019-03-22T18:31:48.621Z,60.79
2019-03-22T18:34:17.079Z,61.50
2019-03-22T18:36:45.530Z,61.35
2019-03-22T18:39:33.246Z,61.82
2019-03-22T18:42:01.704Z,62.03
2019-03-22T18:44:49.317Z,63.90
2019-03-22T18:47:17.772Z,63.67
2019-03-22T18:49:46.229Z,64.40
2019-03-22T18:54:48.648Z,65.40
2019-03-22T19:00:29.508Z,65.37
2019-03-22T19:05:32.099Z,66.75
2019-03-22T19:08:00.567Z,66.94
2019-03-22T19:10:29.044Z,67.09
2019-03-22T19:13:16.814Z,68.16
2019-03-22T19:15:45.343Z,68.36
2019-03-22T19:18:13.799Z,68.57
2019-03-22T19:20:42.255Z,68.65
2019-03-22T19:23:10.771Z,68.85
2019-03-22T19:25:39.225Z,69.12
2019-03-22T19:28:07.674Z,69.16
2019-03-22T19:33:29.864Z,70.24
2019-03-22T19:35:58.354Z,70.83
2019-03-22T19:38:26.806Z,70.74
2019-03-22T19:40:55.263Z,70.67
2019-03-22T19:43:43.099Z,70.96
2019-03-22T19:46:30.744Z,71.55
2019-03-22T19:51:32.889Z,71.26
2019-03-22T19:54:01.350Z,71.87
2019-03-22T19:56:29.844Z,71.99
2019-03-22T19:58:58.307Z,72.18
2019-03-22T20:01:26.765Z,72.05
2019-03-22T20:04:14.576Z,73.24
2019-03-22T20:07:02.284Z,73.08
2019-03-22T20:09:50.079Z,73.68
2019-03-22T20:12:18.541Z,74.94
2019-03-22T20:14:47.004Z,74.59
2019-03-22T20:17:15.506Z,74.31
2019-03-22T20:19:43.972Z,75.18
2019-03-22T20:22:12.446Z,75.19
2019-03-22T20:24:40.936Z,75.72
2019-03-22T20:27:09.401Z,75.86
2019-03-22T20:29:40.002Z,76.26
2019-03-22T20:32:27.410Z,76.42
2019-03-22T20:34:55.881Z,76.22
2019-03-22T20:37:24.342Z,77.44
2019-03-22T20:39:52.849Z,77.73
2019-03-22T20:42:21.306Z,77.88
2019-03-22T20:44:49.770Z,78.13
2019-03-22T20:47:18.293Z,77.59
2019-03-22T20:49:46.756Z,78.06
2019-03-22T20:52:34.481Z,78.97
2019-03-22T21:00:45.123Z,77.52
2019-03-22T21:03:33.232Z,78.04
2019-03-22T21:06:04.394Z,78.07
2019-03-22T21:08:31.919Z,78.00
2019-03-22T21:11:00.376Z,78.20
2019-03-22T21:13:28.842Z,78.28
2019-03-22T21:16:16.678Z,79.19
2019-03-22T21:18:45.131Z,79.18
2019-03-22T21:21:13.587Z,79.80
2019-03-22T21:23:42.114Z,79.54
2019-03-22T21:26:10.564Z,81.09
2019-03-22T21:28:39.027Z,80.67
2019-03-22T21:31:07.597Z,80.98
2019-03-22T21:33:36.060Z,80.68
2019-03-22T21:36:04.596Z,80.30
2019-03-22T21:41:07.443Z,80.33
2019-03-22T21:43:35.946Z,81.36
2019-03-22T21:46:23.665Z,81.55
2019-03-22T21:48:52.153Z,81.70
2019-03-22T21:51:20.626Z,82.91
2019-03-22T21:53:49.086Z,82.83
2019-03-22T21:56:17.584Z,82.35
2019-03-22T21:58:46.055Z,81.95
2019-03-22T22:01:14.595Z,83.88
2019-03-22T22:04:02.497Z,83.00
2019-03-22T22:06:30.940Z,82.55
2019-03-22T22:08:59.397Z,82.33
2019-03-22T22:14:02.321Z,83.46
2019-03-22T22:16:30.779Z,83.58
2019-03-22T22:21:52.839Z,84.39
2019-03-22T22:27:14.406Z,83.67
2019-03-22T22:32:18.098Z,84.42
2019-03-22T22:34:46.550Z,84.65
2019-03-22T22:37:15.073Z,84.34
2019-03-22T22:39:43.535Z,84.04
2019-03-22T22:42:52.018Z,84.08
2019-03-22T22:45:20.485Z,84.05
2019-03-22T22:47:48.952Z,85.36
2019-03-22T22:50:17.455Z,85.26
2019-03-22T22:52:45.909Z,84.39
2019-03-22T22:55:33.601Z,84.61
2019-03-22T22:58:02.063Z,85.78
2019-03-22T23:00:49.900Z,85.65
2019-03-22T23:03:37.547Z,85.23
2019-03-22T23:08:39.689Z,85.64
2019-03-22T23:11:27.440Z,85.73
2019-03-22T23:13:55.907Z,86.42
2019-03-22T23:16:43.990Z,87.04
2019-03-22T23:19:12.474Z,87.15
2019-03-22T23:22:00.191Z,87.12
2019-03-22T23:24:28.652Z,86.75
2019-03-22T23:27:16.387Z,86.19
2019-03-22T23:29:44.855Z,84.40
2019-03-22T23:32:13.316Z,85.19
2019-03-22T23:37:34.739Z,86.37
2019-03-22T23:43:17.087Z,86.59
2019-03-22T23:46:04.859Z,86.89
2019-03-22T23:51:26.538Z,87.20
2019-03-22T23:53:55.053Z,87.76
2019-03-22T23:56:23.509Z,87.11
